sensor_id;sensor_type;location;lat;lon;timestamp;pressure;altitude;pressure_sealevel;temperature;humidity
46942;BME280;32676;52.630;4.896;2023-05-12T00:02:09;100191.97;;;12.21;83.78
46942;BME280;32676;52.630;4.896;2023-05-12T00:04:35;100184.22;;;12.18;83.75
46942;BME280;32676;52.630;4.896;2023-05-12T00:07:02;100181.59;;;12.18;83.71
46942;BME280;32676;52.630;4.896;2023-05-12T00:09:32;100166.88;;;12.14;83.67
46942;BME280;32676;52.630;4.896;2023-05-12T00:11:58;100164.38;;;12.11;84.03
46942;BME280;32676;52.630;4.896;2023-05-12T00:14:26;100149.59;;;12.08;83.91
46942;BME280;32676;52.630;4.896;2023-05-12T00:16:52;100134.78;;;12.06;84.15
46942;BME280;32676;52.630;4.896;2023-05-12T00:19:18;100133.09;;;12.05;84.16
46942;BME280;32676;52.630;4.896;2023-05-12T00:21:45;100135.81;;;12.03;84.65
46942;BME280;32676;52.630;4.896;2023-05-12T00:24:11;100143.63;;;12.05;84.66
46942;BME280;32676;52.630;4.896;2023-05-12T00:26:39;100154.03;;;12.08;84.92
46942;BME280;32676;52.630;4.896;2023-05-12T00:29:05;100159.28;;;12.08;85.14
46942;BME280;32676;52.630;4.896;2023-05-12T00:31:31;100160.97;;;12.09;85.26
46942;BME280;32676;52.630;4.896;2023-05-12T00:33:57;100151.47;;;12.06;84.96
46942;BME280;32676;52.630;4.896;2023-05-12T00:36:24;100154.94;;;12.07;84.94
46942;BME280;32676;52.630;4.896;2023-05-12T00:38:50;100149.75;;;12.05;84.83
46942;BME280;32676;52.630;4.896;2023-05-12T00:41:17;100151.53;;;12.05;85.19
46942;BME280;32676;52.630;4.896;2023-05-12T00:43:45;100150.75;;;12.03;85.14
46942;BME280;32676;52.630;4.896;2023-05-12T00:46:11;100137.66;;;12.01;85.04
46942;BME280;32676;52.630;4.896;2023-05-12T00:48:37;100129.97;;;11.97;85.15
46942;BME280;32676;52.630;4.896;2023-05-12T00:51:03;100103.81;;;11.94;85.08
46942;BME280;32676;52.630;4.896;2023-05-12T00:53:30;100109.94;;;11.94;85.10
46942;BME280;32676;52.630;4.896;2023-05-12T00:55:57;100119.63;;;11.94;85.07
46942;BME280;32676;52.630;4.896;2023-05-12T00:58:25;100121.31;;;11.95;85.02
46942;BME280;32676;52.630;4.896;2023-05-12T01:00:52;100112.63;;;11.93;85.09
46942;BME280;32676;52.630;4.896;2023-05-12T01:03:18;100128.28;;;11.96;84.95
46942;BME280;32676;52.630;4.896;2023-05-12T01:05:46;100137.88;;;11.97;84.56
46942;BME280;32676;52.630;4.896;2023-05-12T01:08:14;100124.88;;;11.94;84.60
46942;BME280;32676;52.630;4.896;2023-05-12T01:10:42;100105.78;;;11.88;84.69
46942;BME280;32676;52.630;4.896;2023-05-12T01:13:08;100100.53;;;11.88;84.83
46942;BME280;32676;52.630;4.896;2023-05-12T01:15:35;100093.53;;;11.87;84.99
46942;BME280;32676;52.630;4.896;2023-05-12T01:18:04;100094.50;;;11.86;85.29
46942;BME280;32676;52.630;4.896;2023-05-12T01:20:31;100112.75;;;11.89;85.40
46942;BME280;32676;52.630;4.896;2023-05-12T01:22:58;100118.91;;;11.90;85.56
46942;BME280;32676;52.630;4.896;2023-05-12T01:25:25;100128.44;;;11.93;85.58
46942;BME280;32676;52.630;4.896;2023-05-12T01:27:55;100133.69;;;11.93;85.77
46942;BME280;32676;52.630;4.896;2023-05-12T01:30:21;100137.09;;;11.95;85.73
46942;BME280;32676;52.630;4.896;2023-05-12T01:32:48;100142.38;;;11.95;86.05
46942;BME280;32676;52.630;4.896;2023-05-12T01:35:15;100135.41;;;11.94;86.22
46942;BME280;32676;52.630;4.896;2023-05-12T01:37:41;100141.53;;;11.94;86.17
46942;BME280;32676;52.630;4.896;2023-05-12T01:40:08;100138.97;;;11.93;86.33
46942;BME280;32676;52.630;4.896;2023-05-12T01:42:34;100137.28;;;11.92;86.82
46942;BME280;32676;52.630;4.896;2023-05-12T01:45:02;100140.81;;;11.90;86.85
46942;BME280;32676;52.630;4.896;2023-05-12T01:47:28;100138.13;;;11.92;87.16
46942;BME280;32676;52.630;4.896;2023-05-12T01:49:55;100149.50;;;11.93;87.08
46942;BME280;32676;52.630;4.896;2023-05-12T01:52:22;100157.31;;;11.94;87.48
46942;BME280;32676;52.630;4.896;2023-05-12T01:54:49;100158.16;;;11.95;87.48
46942;BME280;32676;52.630;4.896;2023-05-12T01:57:15;100171.25;;;11.96;87.35
46942;BME280;32676;52.630;4.896;2023-05-12T01:59:42;100151.22;;;11.94;87.34
46942;BME280;32676;52.630;4.896;2023-05-12T02:02:09;100162.53;;;11.96;87.44
46942;BME280;32676;52.630;4.896;2023-05-12T02:04:36;100154.75;;;11.93;87.65
46942;BME280;32676;52.630;4.896;2023-05-12T02:07:03;100162.59;;;11.94;87.83
46942;BME280;32676;52.630;4.896;2023-05-12T02:09:29;100170.41;;;11.96;87.85
46942;BME280;32676;52.630;4.896;2023-05-12T02:11:55;100162.59;;;11.94;88.13
46942;BME280;32676;52.630;4.896;2023-05-12T02:14:22;100160.03;;;11.93;88.21
46942;BME280;32676;52.630;4.896;2023-05-12T02:16:48;100144.34;;;11.89;88.12
46942;BME280;32676;52.630;4.896;2023-05-12T02:19:18;100141.81;;;11.88;88.17
46942;BME280;32676;52.630;4.896;2023-05-12T02:21:44;100134.03;;;11.85;87.84
46942;BME280;32676;52.630;4.896;2023-05-12T02:24:11;100140.22;;;11.84;88.27
46942;BME280;32676;52.630;4.896;2023-05-12T02:26:37;100133.22;;;11.84;88.30
46942;BME280;32676;52.630;4.896;2023-05-12T02:29:03;100128.84;;;11.83;88.12
46942;BME280;32676;52.630;4.896;2023-05-12T02:31:29;100132.41;;;11.82;88.16
46942;BME280;32676;52.630;4.896;2023-05-12T02:33:56;100125.44;;;11.81;88.52
46942;BME280;32676;52.630;4.896;2023-05-12T02:36:25;100121.09;;;11.80;88.18
46942;BME280;32676;52.630;4.896;2023-05-12T02:38:51;100115.91;;;11.79;88.38
46942;BME280;32676;52.630;4.896;2023-05-12T02:41:17;100115.06;;;11.78;88.28
46942;BME280;32676;52.630;4.896;2023-05-12T02:43:43;100097.72;;;11.74;88.35
46942;BME280;32676;52.630;4.896;2023-05-12T02:46:10;100096.94;;;11.72;88.38
46942;BME280;32676;52.630;4.896;2023-05-12T02:48:36;100099.56;;;11.72;88.77
46942;BME280;32676;52.630;4.896;2023-05-12T02:51:02;100086.56;;;11.69;88.78
46942;BME280;32676;52.630;4.896;2023-05-12T02:53:30;100086.56;;;11.69;89.23
46942;BME280;32676;52.630;4.896;2023-05-12T02:55:56;100097.88;;;11.71;89.07
46942;BME280;32676;52.630;4.896;2023-05-12T02:58:23;100090.91;;;11.70;89.42
46942;BME280;32676;52.630;4.896;2023-05-12T03:00:49;100086.69;;;11.66;89.24
46942;BME280;32676;52.630;4.896;2023-05-12T03:03:15;100089.19;;;11.69;89.67
46942;BME280;32676;52.630;4.896;2023-05-12T03:05:41;100068.44;;;11.63;89.34
46942;BME280;32676;52.630;4.896;2023-05-12T03:08:08;100064.09;;;11.62;89.47
46942;BME280;32676;52.630;4.896;2023-05-12T03:10:36;100065.03;;;11.61;89.47
46942;BME280;32676;52.630;4.896;2023-05-12T03:13:02;100058.06;;;11.60;89.82
46942;BME280;32676;52.630;4.896;2023-05-12T03:15:28;100056.34;;;11.59;89.86
46942;BME280;32676;52.630;4.896;2023-05-12T03:17:55;100054.66;;;11.58;89.77
46942;BME280;32676;52.630;4.896;2023-05-12T03:20:21;100054.66;;;11.58;89.79
46942;BME280;32676;52.630;4.896;2023-05-12T03:22:47;100059.94;;;11.58;89.78
46942;BME280;32676;52.630;4.896;2023-05-12T03:25:13;100065.19;;;11.58;90.01
46942;BME280;32676;52.630;4.896;2023-05-12T03:27:42;100058.22;;;11.57;89.97
46942;BME280;32676;52.630;4.896;2023-05-12T03:30:08;100065.19;;;11.58;90.06
46942;BME280;32676;52.630;4.896;2023-05-12T03:32:35;100067.81;;;11.58;90.27
46942;BME280;32676;52.630;4.896;2023-05-12T03:35:03;100063.47;;;11.57;90.18
46942;BME280;32676;52.630;4.896;2023-05-12T03:37:30;100061.78;;;11.56;90.20
46942;BME280;32676;52.630;4.896;2023-05-12T03:39:56;100064.41;;;11.56;90.30
46942;BME280;32676;52.630;4.896;2023-05-12T03:42:23;100061.78;;;11.56;90.26
46942;BME280;32676;52.630;4.896;2023-05-12T03:44:50;100074.00;;;11.57;90.24
46942;BME280;32676;52.630;4.896;2023-05-12T03:47:17;100074.00;;;11.57;90.38
46942;BME280;32676;52.630;4.896;2023-05-12T03:49:43;100084.44;;;11.58;90.64
46942;BME280;32676;52.630;4.896;2023-05-12T03:52:09;100082.66;;;11.59;90.70
46942;BME280;32676;52.630;4.896;2023-05-12T03:54:36;100092.28;;;11.60;90.85
46942;BME280;32676;52.630;4.896;2023-05-12T03:57:02;100097.47;;;11.61;90.86
46942;BME280;32676;52.630;4.896;2023-05-12T03:59:29;100100.03;;;11.63;90.91
46942;BME280;32676;52.630;4.896;2023-05-12T04:01:57;100119.22;;;11.65;90.74
46942;BME280;32676;52.630;4.896;2023-05-12T04:04:23;100124.34;;;11.68;90.87
46942;BME280;32676;52.630;4.896;2023-05-12T04:06:50;100134.88;;;11.68;90.81
46942;BME280;32676;52.630;4.896;2023-05-12T04:09:16;100150.50;;;11.71;90.79
46942;BME280;32676;52.630;4.896;2023-05-12T04:11:42;100163.59;;;11.72;90.82
46942;BME280;32676;52.630;4.896;2023-05-12T04:14:08;100163.53;;;11.74;90.79
46942;BME280;32676;52.630;4.896;2023-05-12T04:16:35;100166.16;;;11.74;91.19
46942;BME280;32676;52.630;4.896;2023-05-12T04:19:03;100181.81;;;11.77;91.01
46942;BME280;32676;52.630;4.896;2023-05-12T04:21:29;100192.16;;;11.80;91.07
46942;BME280;32676;52.630;4.896;2023-05-12T04:23:57;100198.31;;;11.81;91.08
46942;BME280;32676;52.630;4.896;2023-05-12T04:26:23;100199.16;;;11.81;91.12
46942;BME280;32676;52.630;4.896;2023-05-12T04:28:51;100206.09;;;11.82;91.33
46942;BME280;32676;52.630;4.896;2023-05-12T04:31:17;100220.06;;;11.84;90.89
46942;BME280;32676;52.630;4.896;2023-05-12T04:33:43;100225.34;;;11.84;90.83
46942;BME280;32676;52.630;4.896;2023-05-12T04:36:11;100220.06;;;11.84;90.58
46942;BME280;32676;52.630;4.896;2023-05-12T04:38:38;100214.81;;;11.84;90.52
46942;BME280;32676;52.630;4.896;2023-05-12T04:41:04;100232.28;;;11.85;90.64
46942;BME280;32676;52.630;4.896;2023-05-12T04:43:30;100234.88;;;11.87;90.67
46942;BME280;32676;52.630;4.896;2023-05-12T04:45:56;100243.53;;;11.89;90.46
46942;BME280;32676;52.630;4.896;2023-05-12T04:48:23;100247.84;;;11.92;90.45
46942;BME280;32676;52.630;4.896;2023-05-12T04:50:49;100254.91;;;11.89;90.84
46942;BME280;32676;52.630;4.896;2023-05-12T04:53:17;100251.41;;;11.90;90.44
46942;BME280;32676;52.630;4.896;2023-05-12T04:55:43;100253.22;;;11.88;90.46
46942;BME280;32676;52.630;4.896;2023-05-12T04:58:10;100237.56;;;11.85;90.49
46942;BME280;32676;52.630;4.896;2023-05-12T05:00:36;100235.00;;;11.84;90.28
46942;BME280;32676;52.630;4.896;2023-05-12T05:03:02;100228.88;;;11.83;90.13
46942;BME280;32676;52.630;4.896;2023-05-12T05:05:29;100234.16;;;11.83;90.46
46942;BME280;32676;52.630;4.896;2023-05-12T05:07:55;100246.41;;;11.84;90.24
46942;BME280;32676;52.630;4.896;2023-05-12T05:10:23;100247.25;;;11.85;90.04
46942;BME280;32676;52.630;4.896;2023-05-12T05:12:49;100235.00;;;11.84;90.08
46942;BME280;32676;52.630;4.896;2023-05-12T05:15:16;100253.34;;;11.85;90.18
46942;BME280;32676;52.630;4.896;2023-05-12T05:17:42;100241.97;;;11.85;90.02
46942;BME280;32676;52.630;4.896;2023-05-12T05:20:13;100242.81;;;11.85;90.17
46942;BME280;32676;52.630;4.896;2023-05-12T05:22:39;100259.41;;;11.87;89.89
46942;BME280;32676;52.630;4.896;2023-05-12T05:25:06;100266.47;;;11.87;90.23
46942;BME280;32676;52.630;4.896;2023-05-12T05:27:34;100274.28;;;11.88;90.07
46942;BME280;32676;52.630;4.896;2023-05-12T05:30:00;100293.41;;;11.94;90.31
46942;BME280;32676;52.630;4.896;2023-05-12T05:32:26;100298.66;;;11.94;90.37
46942;BME280;32676;52.630;4.896;2023-05-12T05:34:52;100292.63;;;11.92;90.21
46942;BME280;32676;52.630;4.896;2023-05-12T05:37:19;100296.09;;;11.92;90.17
46942;BME280;32676;52.630;4.896;2023-05-12T05:39:45;100307.34;;;11.96;90.30
46942;BME280;32676;52.630;4.896;2023-05-12T05:42:11;100314.28;;;11.97;90.30
46942;BME280;32676;52.630;4.896;2023-05-12T05:44:39;100321.28;;;11.98;90.41
46942;BME280;32676;52.630;4.896;2023-05-12T05:47:06;100322.13;;;11.98;90.22
46942;BME280;32676;52.630;4.896;2023-05-12T05:49:32;100329.97;;;12.00;90.23
46942;BME280;32676;52.630;4.896;2023-05-12T05:51:58;100345.63;;;12.03;90.32
46942;BME280;32676;52.630;4.896;2023-05-12T05:54:25;100367.34;;;12.08;90.42
46942;BME280;32676;52.630;4.896;2023-05-12T05:56:51;100386.50;;;12.12;90.37
46942;BME280;32676;52.630;4.896;2023-05-12T05:59:17;100391.66;;;12.13;90.24
46942;BME280;32676;52.630;4.896;2023-05-12T06:01:45;100409.97;;;12.16;90.40
46942;BME280;32676;52.630;4.896;2023-05-12T06:04:11;100419.44;;;12.20;90.17
46942;BME280;32676;52.630;4.896;2023-05-12T06:06:38;100432.59;;;12.20;90.08
46942;BME280;32676;52.630;4.896;2023-05-12T06:09:04;100446.44;;;12.25;90.16
46942;BME280;32676;52.630;4.896;2023-05-12T06:11:31;100469.00;;;12.31;90.10
46942;BME280;32676;52.630;4.896;2023-05-12T06:13:57;100495.16;;;12.36;89.81
46942;BME280;32676;52.630;4.896;2023-05-12T06:16:23;100519.53;;;12.41;89.88
46942;BME280;32676;52.630;4.896;2023-05-12T06:18:51;100542.16;;;12.45;89.85
46942;BME280;32676;52.630;4.896;2023-05-12T06:21:17;100552.59;;;12.48;89.89
46942;BME280;32676;52.630;4.896;2023-05-12T06:23:44;100549.06;;;12.47;89.59
46942;BME280;32676;52.630;4.896;2023-05-12T06:26:10;100559.56;;;12.49;89.45
46942;BME280;32676;52.630;4.896;2023-05-12T06:28:37;100568.31;;;12.49;89.66
46942;BME280;32676;52.630;4.896;2023-05-12T06:31:05;100575.22;;;12.52;89.50
46942;BME280;32676;52.630;4.896;2023-05-12T06:33:31;100573.50;;;12.51;89.25
46942;BME280;32676;52.630;4.896;2023-05-12T06:35:59;100574.38;;;12.52;89.35
46942;BME280;32676;52.630;4.896;2023-05-12T06:38:25;100587.47;;;12.53;89.39
46942;BME280;32676;52.630;4.896;2023-05-12T06:40:51;100606.56;;;12.58;89.48
46942;BME280;32676;52.630;4.896;2023-05-12T06:43:18;100627.47;;;12.63;89.29
46942;BME280;32676;52.630;4.896;2023-05-12T06:45:44;100643.22;;;12.64;89.31
46942;BME280;32676;52.630;4.896;2023-05-12T06:48:10;100653.63;;;12.67;89.76
46942;BME280;32676;52.630;4.896;2023-05-12T06:50:37;100664.03;;;12.71;89.61
46942;BME280;32676;52.630;4.896;2023-05-12T06:53:04;100695.41;;;12.77;89.22
46942;BME280;32676;52.630;4.896;2023-05-12T06:55:32;100728.50;;;12.84;89.10
46942;BME280;32676;52.630;4.896;2023-05-12T06:57:58;100740.66;;;12.88;89.25
46942;BME280;32676;52.630;4.896;2023-05-12T07:00:25;100757.25;;;12.90;89.13
46942;BME280;32676;52.630;4.896;2023-05-12T07:02:51;100775.56;;;12.93;89.18
46942;BME280;32676;52.630;4.896;2023-05-12T07:05:18;100796.41;;;12.99;88.70
46942;BME280;32676;52.630;4.896;2023-05-12T07:07:44;100818.25;;;13.03;88.97
46942;BME280;32676;52.630;4.896;2023-05-12T07:10:12;100843.50;;;13.09;89.00
46942;BME280;32676;52.630;4.896;2023-05-12T07:12:38;100873.13;;;13.15;88.67
46942;BME280;32676;52.630;4.896;2023-05-12T07:15:05;100912.31;;;13.24;88.45
46942;BME280;32676;52.630;4.896;2023-05-12T07:17:32;100946.34;;;13.32;88.40
46942;BME280;32676;52.630;4.896;2023-05-12T07:19:58;100998.63;;;13.44;88.03
46942;BME280;32676;52.630;4.896;2023-05-12T07:22:25;101033.47;;;13.53;87.67
46942;BME280;32676;52.630;4.896;2023-05-12T07:24:51;101071.00;;;13.61;87.35
46942;BME280;32676;52.630;4.896;2023-05-12T07:27:19;101086.69;;;13.64;86.79
46942;BME280;32676;52.630;4.896;2023-05-12T07:29:45;101122.47;;;13.71;86.78
46942;BME280;32676;52.630;4.896;2023-05-12T07:32:11;101166.94;;;13.82;86.47
46942;BME280;32676;52.630;4.896;2023-05-12T07:34:38;101206.25;;;13.90;86.63
46942;BME280;32676;52.630;4.896;2023-05-12T07:37:04;101245.56;;;13.99;86.13
46942;BME280;32676;52.630;4.896;2023-05-12T07:39:30;101269.06;;;14.05;85.86
46942;BME280;32676;52.630;4.896;2023-05-12T07:41:56;101269.94;;;14.06;85.55
46942;BME280;32676;52.630;4.896;2023-05-12T07:44:25;101294.44;;;14.09;84.87
46942;BME280;32676;52.630;4.896;2023-05-12T07:46:51;101332.88;;;14.18;84.57
46942;BME280;32676;52.630;4.896;2023-05-12T07:49:18;101371.31;;;14.27;84.24
46942;BME280;32676;52.630;4.896;2023-05-12T07:51:45;101383.53;;;14.29;84.31
46942;BME280;32676;52.630;4.896;2023-05-12T07:54:12;101408.88;;;14.35;83.50
46942;BME280;32676;52.630;4.896;2023-05-12T07:56:38;101431.50;;;14.42;83.10
46942;BME280;32676;52.630;4.896;2023-05-12T07:59:04;101463.03;;;14.48;82.98
46942;BME280;32676;52.630;4.896;2023-05-12T08:01:32;101490.97;;;14.55;83.30
46942;BME280;32676;52.630;4.896;2023-05-12T08:03:58;101525.13;;;14.62;83.29
46942;BME280;32676;52.630;4.896;2023-05-12T08:06:25;101553.03;;;14.70;83.45
46942;BME280;32676;52.630;4.896;2023-05-12T08:08:51;101583.69;;;14.76;82.98
46942;BME280;32676;52.630;4.896;2023-05-12T08:11:20;101592.41;;;14.78;82.85
46942;BME280;32676;52.630;4.896;2023-05-12T08:13:46;101595.97;;;14.77;82.37
46942;BME280;32676;52.630;4.896;2023-05-12T08:16:12;101571.50;;;14.72;82.46
46942;BME280;32676;52.630;4.896;2023-05-12T08:18:40;101558.31;;;14.70;82.48
46942;BME280;32676;52.630;4.896;2023-05-12T08:21:06;101564.47;;;14.71;82.96
46942;BME280;32676;52.630;4.896;2023-05-12T08:23:32;101569.66;;;14.74;83.00
46942;BME280;32676;52.630;4.896;2023-05-12T08:26:01;101587.16;;;14.76;82.95
46942;BME280;32676;52.630;4.896;2023-05-12T08:28:28;101609.88;;;14.82;82.87
46942;BME280;32676;52.630;4.896;2023-05-12T08:30:55;101624.81;;;14.85;82.75
46942;BME280;32676;52.630;4.896;2023-05-12T08:33:21;101634.41;;;14.87;82.65
46942;BME280;32676;52.630;4.896;2023-05-12T08:35:49;101647.56;;;14.89;82.32
46942;BME280;32676;52.630;4.896;2023-05-12T08:38:15;101675.53;;;14.96;82.02
46942;BME280;32676;52.630;4.896;2023-05-12T08:40:43;101707.88;;;15.04;81.82
46942;BME280;32676;52.630;4.896;2023-05-12T08:43:12;101747.41;;;15.09;81.88
46942;BME280;32676;52.630;4.896;2023-05-12T08:45:43;101793.69;;;15.22;81.61
46942;BME280;32676;52.630;4.896;2023-05-12T08:48:10;101816.53;;;15.26;81.38
46942;BME280;32676;52.630;4.896;2023-05-12T08:50:37;101819.03;;;15.29;81.04
46942;BME280;32676;52.630;4.896;2023-05-12T08:53:07;101840.94;;;15.34;80.97
46942;BME280;32676;52.630;4.896;2023-05-12T08:55:35;101866.38;;;15.39;80.85
46942;BME280;32676;52.630;4.896;2023-05-12T08:58:02;101884.81;;;15.42;80.56
46942;BME280;32676;52.630;4.896;2023-05-12T09:00:28;101914.56;;;15.50;80.35
46942;BME280;32676;52.630;4.896;2023-05-12T09:02:56;101972.38;;;15.62;80.63
46942;BME280;32676;52.630;4.896;2023-05-12T09:05:24;102000.41;;;15.69;80.31
46942;BME280;32676;52.630;4.896;2023-05-12T09:07:52;102042.50;;;15.79;80.25
46942;BME280;32676;52.630;4.896;2023-05-12T09:10:21;102080.19;;;15.88;80.43
46942;BME280;32676;52.630;4.896;2023-05-12T09:12:49;102110.00;;;15.95;80.06
46942;BME280;32676;52.630;4.896;2023-05-12T09:15:17;102131.91;;;16.00;79.70
46942;BME280;32676;52.630;4.896;2023-05-12T09:17:45;102153.88;;;16.04;79.49
46942;BME280;32676;52.630;4.896;2023-05-12T09:20:11;102186.38;;;16.10;78.89
46942;BME280;32676;52.630;4.896;2023-05-12T09:22:38;102231.97;;;16.22;78.76
46942;BME280;32676;52.630;4.896;2023-05-12T09:25:13;102287.25;;;16.34;78.57
46942;BME280;32676;52.630;4.896;2023-05-12T09:27:41;102342.59;;;16.46;78.28
46942;BME280;32676;52.630;4.896;2023-05-12T09:30:08;102407.59;;;16.60;77.93
46942;BME280;32676;52.630;4.896;2023-05-12T09:32:35;102477.84;;;16.76;77.82
46942;BME280;32676;52.630;4.896;2023-05-12T09:35:01;102528.84;;;16.87;77.27
46942;BME280;32676;52.630;4.896;2023-05-12T09:37:29;102556.97;;;16.95;77.04
46942;BME280;32676;52.630;4.896;2023-05-12T09:39:59;102574.53;;;16.99;76.65
46942;BME280;32676;52.630;4.896;2023-05-12T09:42:27;102602.63;;;17.06;76.25
46942;BME280;32676;52.630;4.896;2023-05-12T09:44:58;102625.47;;;17.12;76.34
46942;BME280;32676;52.630;4.896;2023-05-12T09:47:26;102651.00;;;17.17;76.44
46942;BME280;32676;52.630;4.896;2023-05-12T09:49:52;102672.06;;;17.23;76.30
46942;BME280;32676;52.630;4.896;2023-05-12T09:52:20;102722.28;;;17.33;76.21
46942;BME280;32676;52.630;4.896;2023-05-12T09:54:47;102738.13;;;17.36;75.67
46942;BME280;32676;52.630;4.896;2023-05-12T09:57:14;102743.31;;;17.39;75.91
46942;BME280;32676;52.630;4.896;2023-05-12T09:59:41;102753.88;;;17.42;75.77
46942;BME280;32676;52.630;4.896;2023-05-12T10:02:10;102775.88;;;17.47;75.98
46942;BME280;32676;52.630;4.896;2023-05-12T10:04:41;102782.00;;;17.49;75.46
46942;BME280;32676;52.630;4.896;2023-05-12T10:07:10;102836.66;;;17.59;75.45
46942;BME280;32676;52.630;4.896;2023-05-12T10:09:37;102904.47;;;17.74;75.30
46942;BME280;32676;52.630;4.896;2023-05-12T10:12:06;102954.59;;;17.88;75.63
46942;BME280;32676;52.630;4.896;2023-05-12T10:14:33;102996.03;;;17.97;74.52
46942;BME280;32676;52.630;4.896;2023-05-12T10:17:00;103027.81;;;18.03;73.55
46942;BME280;32676;52.630;4.896;2023-05-12T10:19:28;103013.69;;;18.01;73.16
46942;BME280;32676;52.630;4.896;2023-05-12T10:21:55;103035.63;;;18.08;72.50
46942;BME280;32676;52.630;4.896;2023-05-12T10:24:22;103074.47;;;18.15;72.08
46942;BME280;32676;52.630;4.896;2023-05-12T10:26:50;103144.97;;;18.31;72.54
46942;BME280;32676;52.630;4.896;2023-05-12T10:29:18;103215.50;;;18.48;72.74
46942;BME280;32676;52.630;4.896;2023-05-12T10:31:44;103288.75;;;18.64;72.68
46942;BME280;32676;52.630;4.896;2023-05-12T10:34:15;103314.28;;;18.71;71.91
46942;BME280;32676;52.630;4.896;2023-05-12T10:36:43;103372.59;;;18.84;71.36
46942;BME280;32676;52.630;4.896;2023-05-12T10:39:11;103400.84;;;18.91;70.50
46942;BME280;32676;52.630;4.896;2023-05-12T10:41:38;103421.16;;;18.95;69.14
46942;BME280;32676;52.630;4.896;2023-05-12T10:44:05;103390.19;;;18.91;68.23
46942;BME280;32676;52.630;4.896;2023-05-12T10:46:31;103384.03;;;18.89;68.89
46942;BME280;32676;52.630;4.896;2023-05-12T10:48:58;103376.91;;;18.89;69.24
46942;BME280;32676;52.630;4.896;2023-05-12T10:51:25;103358.38;;;18.85;69.16
46942;BME280;32676;52.630;4.896;2023-05-12T10:53:55;103370.69;;;18.89;70.49
46942;BME280;32676;52.630;4.896;2023-05-12T10:56:22;103395.44;;;18.94;69.42
46942;BME280;32676;52.630;4.896;2023-05-12T10:59:04;103439.56;;;19.04;68.86
46942;BME280;32676;52.630;4.896;2023-05-12T11:01:31;103475.78;;;19.13;68.83
46942;BME280;32676;52.630;4.896;2023-05-12T11:03:57;103488.13;;;19.15;69.21
46942;BME280;32676;52.630;4.896;2023-05-12T11:06:34;103496.06;;;19.18;69.47
46942;BME280;32676;52.630;4.896;2023-05-12T11:09:02;103498.66;;;19.22;68.07
46942;BME280;32676;52.630;4.896;2023-05-12T11:11:29;103515.47;;;19.24;67.61
46942;BME280;32676;52.630;4.896;2023-05-12T11:13:57;103533.13;;;19.28;68.09
46942;BME280;32676;52.630;4.896;2023-05-12T11:16:23;103561.41;;;19.35;69.48
46942;BME280;32676;52.630;4.896;2023-05-12T11:18:58;103576.34;;;19.41;69.56
46942;BME280;32676;52.630;4.896;2023-05-12T11:21:25;103555.13;;;19.37;69.05
46942;BME280;32676;52.630;4.896;2023-05-12T11:23:52;103542.75;;;19.33;68.63
46942;BME280;32676;52.630;4.896;2023-05-12T11:26:21;103545.41;;;19.35;68.35
46942;BME280;32676;52.630;4.896;2023-05-12T11:28:47;103593.16;;;19.44;68.42
46942;BME280;32676;52.630;4.896;2023-05-12T11:31:16;103654.13;;;19.60;68.35
46942;BME280;32676;52.630;4.896;2023-05-12T11:33:42;103693.91;;;19.69;67.50
46942;BME280;32676;52.630;4.896;2023-05-12T11:36:09;103692.09;;;19.71;67.44
46942;BME280;32676;52.630;4.896;2023-05-12T11:38:35;103721.31;;;19.77;67.44
46942;BME280;32676;52.630;4.896;2023-05-12T11:41:01;103773.47;;;19.90;67.40
46942;BME280;32676;52.630;4.896;2023-05-12T11:43:29;103805.34;;;19.97;67.92
46942;BME280;32676;52.630;4.896;2023-05-12T11:45:55;103792.94;;;19.96;67.47
46942;BME280;32676;52.630;4.896;2023-05-12T11:48:30;103794.66;;;19.97;67.19
46942;BME280;32676;52.630;4.896;2023-05-12T11:50:57;103794.66;;;19.97;67.47
46942;BME280;32676;52.630;4.896;2023-05-12T11:53:23;103760.09;;;19.92;66.13
46942;BME280;32676;52.630;4.896;2023-05-12T11:55:51;103731.81;;;19.85;66.28
46942;BME280;32676;52.630;4.896;2023-05-12T11:58:18;103692.84;;;19.78;66.44
46942;BME280;32676;52.630;4.896;2023-05-12T12:00:47;103710.50;;;19.83;66.37
46942;BME280;32676;52.630;4.896;2023-05-12T12:03:14;103755.63;;;19.92;67.14
46942;BME280;32676;52.630;4.896;2023-05-12T12:05:41;103803.41;;;20.03;66.44
46942;BME280;32676;52.630;4.896;2023-05-12T12:08:08;103838.75;;;20.13;66.28
46942;BME280;32676;52.630;4.896;2023-05-12T12:10:36;103876.84;;;20.21;65.35
46942;BME280;32676;52.630;4.896;2023-05-12T12:13:03;103916.69;;;20.30;64.17
46942;BME280;32676;52.630;4.896;2023-05-12T12:15:29;103929.03;;;20.35;64.11
46942;BME280;32676;52.630;4.896;2023-05-12T12:17:57;103927.19;;;20.37;64.00
46942;BME280;32676;52.630;4.896;2023-05-12T12:20:23;103907.72;;;20.31;63.27
46942;BME280;32676;52.630;4.896;2023-05-12T12:22:50;103882.91;;;20.26;62.11
46942;BME280;32676;52.630;4.896;2023-05-12T12:25:16;103897.03;;;20.31;61.39
46942;BME280;32676;52.630;4.896;2023-05-12T12:27:43;103909.44;;;20.36;61.46
46942;BME280;32676;52.630;4.896;2023-05-12T12:30:10;103906.69;;;20.37;59.96
46942;BME280;32676;52.630;4.896;2023-05-12T12:32:36;103902.25;;;20.38;59.56
46942;BME280;32676;52.630;4.896;2023-05-12T12:35:04;103927.03;;;20.43;60.03
46942;BME280;32676;52.630;4.896;2023-05-12T12:37:31;103930.56;;;20.45;60.08
46942;BME280;32676;52.630;4.896;2023-05-12T12:39:57;103965.97;;;20.53;60.90
46942;BME280;32676;52.630;4.896;2023-05-12T12:42:24;103990.75;;;20.61;60.75
46942;BME280;32676;52.630;4.896;2023-05-12T12:44:50;104026.19;;;20.69;57.64
46942;BME280;32676;52.630;4.896;2023-05-12T12:47:16;104031.47;;;20.73;56.81
46942;BME280;32676;52.630;4.896;2023-05-12T12:49:43;104075.84;;;20.80;58.16